Time;durP1;ratioP1;P1;durP2;ratioP2;P2;SDS_P1;SDS_P2;PMS_P1;PMS_P2;Temp;Humidity;BMP_temperature;BMP_pressure;BME280_temperature;BME280_humidity;BME280_pressure;Samples;Min_cycle;Max_cycle;Signal;HPM_P1;HPM_P2
2023/05/03 00:04:37;;;;;;;0.00;0.00;;;;;;;6.13;100.00;102961.53;10370226;28;20129;-81
2023/05/03 00:09:39;;;;;;;3.92;0.30;;;;;;;6.17;100.00;102959.31;10376743;28;20049;-81
2023/05/03 00:14:40;;;;;;;0.05;0.05;;;;;;;6.91;100.00;102958.84;10381592;28;20064;-79
2023/05/03 00:19:42;;;;;;;0.10;0.10;;;;;;;6.22;100.00;102966.44;10369027;28;20053;-80
2023/05/03 00:24:43;;;;;;;0.10;0.10;;;;;;;6.13;100.00;102964.06;10403767;28;20049;-80
2023/05/03 00:29:45;;;;;;;0.30;0.15;;;;;;;6.00;100.00;102965.66;10362952;28;20048;-82
2023/05/03 00:34:51;;;;;;;0.00;0.00;;;;;;;6.23;100.00;102953.75;10382805;28;20131;-82
2023/05/03 00:39:53;;;;;;;0.50;0.45;;;;;;;6.03;100.00;102963.34;10356333;28;20049;-81
2023/05/03 00:44:55;;;;;;;0.00;0.00;;;;;;;6.30;100.00;102967.94;10384558;28;20038;-82
2023/05/03 00:49:56;;;;;;;0.00;0.00;;;;;;;6.21;100.00;102964.66;10378254;28;20116;-82
2023/05/03 00:54:59;;;;;;;0.68;0.25;;;;;;;6.34;100.00;102962.25;10382557;28;20057;-82
2023/05/03 01:00:00;;;;;;;0.00;0.00;;;;;;;5.68;100.00;102958.91;10375437;28;20053;-82
2023/05/03 01:05:06;;;;;;;0.00;0.00;;;;;;;5.29;100.00;102961.75;10365212;28;20115;-81
2023/05/03 01:10:20;;;;;;;0.10;0.05;;;;;;;5.47;100.00;102964.88;10376554;28;20041;-82
2023/05/03 01:15:35;;;;;;;0.00;0.00;;;;;;;5.83;100.00;102953.22;10374103;28;20085;-81
2023/05/03 01:20:36;;;;;;;0.90;0.50;;;;;;;5.58;100.00;102956.38;10380285;28;20076;-81
2023/05/03 01:25:38;;;;;;;0.00;0.00;;;;;;;5.78;100.00;102949.38;10354086;28;20091;-81
2023/05/03 01:30:41;;;;;;;0.20;0.08;;;;;;;5.71;100.00;102956.56;10364522;28;20136;-81
2023/05/03 01:36:26;;;;;;;0.10;0.10;;;;;;;5.75;100.00;102957.72;10362132;28;20048;-81
2023/05/03 01:41:29;;;;;;;0.20;0.20;;;;;;;6.01;100.00;102966.56;10365830;28;20057;-82
2023/05/03 01:46:30;;;;;;;0.93;0.47;;;;;;;6.24;100.00;102980.25;10384295;28;20091;-81
2023/05/03 01:51:32;;;;;;;0.10;0.10;;;;;;;6.11;100.00;102979.28;10372791;28;20113;-81
2023/05/03 01:56:35;;;;;;;0.98;0.95;;;;;;;6.09;100.00;102985.06;10374657;28;20124;-82
2023/05/03 02:01:37;;;;;;;0.15;0.15;;;;;;;6.03;100.00;102983.81;10372523;28;20054;-82
2023/05/03 02:06:38;;;;;;;0.28;0.28;;;;;;;6.25;100.00;102979.50;10400832;28;20064;-82
2023/05/03 02:11:40;;;;;;;0.30;0.20;;;;;;;6.06;100.00;102982.28;10380481;28;20558;-83
2023/05/03 02:16:42;;;;;;;0.98;0.63;;;;;;;6.40;100.00;102974.63;10378883;28;20069;-81
2023/05/03 02:21:43;;;;;;;0.70;0.25;;;;;;;5.92;100.00;102982.03;10361410;28;20057;-81
2023/05/03 02:26:45;;;;;;;0.20;0.10;;;;;;;5.94;100.00;102975.38;10385540;28;20045;-81
2023/05/03 02:31:46;;;;;;;0.03;0.03;;;;;;;6.53;100.00;102964.53;10376655;28;20065;-81
2023/05/03 02:36:48;;;;;;;0.38;0.25;;;;;;;6.34;100.00;102963.16;10389836;28;20037;-81
2023/05/03 02:41:50;;;;;;;0.17;0.10;;;;;;;6.67;100.00;102958.78;10387379;28;20069;-81
2023/05/03 02:46:53;;;;;;;0.13;0.13;;;;;;;6.67;100.00;102963.91;10365731;28;20089;-82
2023/05/03 02:51:55;;;;;;;0.00;0.00;;;;;;;6.13;100.00;102967.50;10395400;28;20112;-81
2023/05/03 02:56:57;;;;;;;0.43;0.30;;;;;;;5.95;100.00;102961.84;10373889;28;20077;-81
2023/05/03 03:01:59;;;;;;;0.35;0.35;;;;;;;5.77;100.00;102956.16;10379161;28;20037;-81
2023/05/03 03:07:01;;;;;;;0.10;0.10;;;;;;;5.81;100.00;102952.19;10350918;28;20045;-81
2023/05/03 03:12:04;;;;;;;0.40;0.20;;;;;;;6.22;100.00;102946.84;10383029;28;20050;-81
2023/05/03 03:17:10;;;;;;;0.00;0.00;;;;;;;6.30;100.00;102940.66;10363342;28;20061;-82
2023/05/03 03:22:13;;;;;;;4.15;0.38;;;;;;;6.10;100.00;102935.69;10380286;28;20046;-82
2023/05/03 03:27:14;;;;;;;0.08;0.03;;;;;;;6.17;100.00;102928.59;10358330;28;20038;-82
2023/05/03 03:32:16;;;;;;;0.13;0.13;;;;;;;5.82;100.00;102913.94;10364662;28;20051;-82
2023/05/03 03:37:20;;;;;;;0.30;0.30;;;;;;;5.56;100.00;102917.00;10400365;28;20401;-81
2023/05/03 03:42:24;;;;;;;0.70;0.32;;;;;;;5.58;100.00;102905.25;10381682;28;20136;-81
2023/05/03 03:47:26;;;;;;;0.08;0.08;;;;;;;5.86;100.00;102899.72;10379674;28;20164;-80
2023/05/03 03:52:28;;;;;;;0.00;0.00;;;;;;;5.07;100.00;102917.44;10392278;28;20517;-80
2023/05/03 03:57:30;;;;;;;0.10;0.10;;;;;;;4.80;100.00;102920.31;10374808;28;20069;-81
2023/05/03 04:02:32;;;;;;;0.65;0.25;;;;;;;5.23;100.00;102934.00;10409603;28;20050;-81
2023/05/03 04:07:35;;;;;;;0.65;0.65;;;;;;;5.07;100.00;102940.44;10364684;28;20393;-81
2023/05/03 04:12:36;;;;;;;0.38;0.13;;;;;;;5.06;100.00;102951.44;10374527;28;20129;-81
2023/05/03 04:17:38;;;;;;;0.30;0.30;;;;;;;4.72;100.00;102961.44;10366789;28;20050;-81
2023/05/03 04:22:43;;;;;;;0.43;0.30;;;;;;;5.07;100.00;102959.97;10381278;28;20042;-82
2023/05/03 04:27:47;;;;;;;0.10;0.10;;;;;;;4.77;100.00;102956.69;10358492;28;20045;-82
2023/05/03 04:32:53;;;;;;;0.57;0.35;;;;;;;4.74;100.00;102965.00;10383476;28;20045;-81
2023/05/03 04:37:56;;;;;;;0.35;0.25;;;;;;;4.92;100.00;102962.19;10381305;28;20049;-81
2023/05/03 04:42:59;;;;;;;0.20;0.20;;;;;;;4.38;100.00;102976.47;10357713;28;20370;-81
2023/05/03 04:48:04;;;;;;;0.47;0.40;;;;;;;4.64;100.00;102984.53;10385678;28;20472;-81
2023/05/03 04:53:06;;;;;;;0.65;0.35;;;;;;;4.93;100.00;102985.28;10404596;28;20045;-82
2023/05/03 04:58:12;;;;;;;0.28;0.25;;;;;;;5.12;100.00;102996.13;10368002;28;20065;-81
2023/05/03 05:03:14;;;;;;;0.43;0.35;;;;;;;5.79;100.00;102992.09;10386242;28;20034;-82
2023/05/03 05:08:16;;;;;;;0.05;0.05;;;;;;;5.95;100.00;103002.78;10389904;28;20107;-82
2023/05/03 05:13:23;;;;;;;0.20;0.20;;;;;;;6.33;100.00;103007.47;10384102;28;20398;-82
2023/05/03 05:18:25;;;;;;;0.20;0.20;;;;;;;6.33;100.00;103012.56;10394373;28;20434;-82
2023/05/03 05:23:28;;;;;;;0.25;0.25;;;;;;;6.68;100.00;103016.06;10357664;28;20074;-82
2023/05/03 05:28:31;;;;;;;1.27;0.50;;;;;;;6.81;100.00;103025.56;10366709;28;20542;-81
2023/05/03 05:33:33;;;;;;;0.45;0.20;;;;;;;7.12;100.00;103012.44;10358378;28;20053;-82
2023/05/03 05:38:36;;;;;;;0.30;0.20;;;;;;;7.20;100.00;103019.03;10372489;28;20056;-81
2023/05/03 05:43:38;;;;;;;0.20;0.20;;;;;;;7.45;100.00;103026.84;10398953;28;20034;-81
2023/05/03 05:48:40;;;;;;;0.00;0.00;;;;;;;8.28;100.00;103032.66;10374183;28;20056;-82
2023/05/03 05:53:42;;;;;;;0.00;0.00;;;;;;;8.01;100.00;103035.97;10363086;28;20137;-82
2023/05/03 05:58:44;;;;;;;0.70;0.57;;;;;;;8.51;100.00;103030.03;10376967;28;20053;-82
2023/05/03 06:03:47;;;;;;;0.30;0.28;;;;;;;8.50;100.00;103032.47;10361222;28;20065;-82
2023/05/03 06:08:50;;;;;;;0.28;0.17;;;;;;;8.80;100.00;103026.00;10365191;28;20105;-82
2023/05/03 06:13:51;;;;;;;0.22;0.22;;;;;;;9.03;100.00;103027.50;10354816;28;20042;-82
2023/05/03 06:18:54;;;;;;;0.43;0.30;;;;;;;9.27;100.00;103026.47;10382589;28;20045;-82
2023/05/03 06:23:56;;;;;;;0.28;0.28;;;;;;;9.32;100.00;103025.97;10372200;28;20114;-82
2023/05/03 06:28:59;;;;;;;0.28;0.20;;;;;;;10.05;100.00;103019.38;10381880;28;20473;-83
2023/05/03 06:34:01;;;;;;;0.25;0.20;;;;;;;9.81;100.00;103023.06;10376096;28;20037;-83
2023/05/03 06:39:03;;;;;;;0.52;0.52;;;;;;;10.50;100.00;103019.53;10363657;28;20057;-82
2023/05/03 06:44:06;;;;;;;0.68;0.35;;;;;;;10.57;100.00;103019.09;10373421;28;20037;-81
2023/05/03 06:49:07;;;;;;;0.10;0.10;;;;;;;10.27;100.00;103024.16;10374322;28;20069;-80
2023/05/03 06:54:09;;;;;;;0.38;0.30;;;;;;;11.45;100.00;103002.63;10367193;28;20061;-80
2023/05/03 06:59:11;;;;;;;0.03;0.03;;;;;;;11.53;100.00;102998.78;10388789;28;20136;-80
2023/05/03 07:04:12;;;;;;;0.10;0.08;;;;;;;12.15;100.00;103003.03;10391000;28;20140;-80
2023/05/03 07:09:14;;;;;;;0.00;0.00;;;;;;;10.97;100.00;102995.69;10368318;28;20046;-81
2023/05/03 07:14:15;;;;;;;0.30;0.20;;;;;;;11.63;100.00;102990.78;10352925;28;20596;-80
2023/05/03 07:19:17;;;;;;;0.10;0.10;;;;;;;11.84;100.00;102990.16;10376405;28;20460;-81
2023/05/03 07:24:19;;;;;;;0.50;0.47;;;;;;;12.22;100.00;102994.81;10381931;28;20049;-82
2023/05/03 07:29:20;;;;;;;0.10;0.10;;;;;;;12.92;100.00;102990.56;10378909;28;20042;-84
2023/05/03 07:34:22;;;;;;;0.10;0.10;;;;;;;13.61;96.73;102977.53;10356268;28;20125;-81
2023/05/03 07:39:23;;;;;;;3.95;1.00;;;;;;;13.49;96.52;102966.59;10388606;28;20125;-82
2023/05/03 07:44:25;;;;;;;0.00;0.00;;;;;;;13.61;93.34;102972.34;10392558;28;20085;-91
2023/05/03 07:49:27;;;;;;;0.00;0.00;;;;;;;14.66;91.81;102960.56;10377671;28;20054;-81
2023/05/03 07:54:28;;;;;;;0.17;0.08;;;;;;;14.62;90.03;102970.72;10399807;28;20129;-84
2023/05/03 07:59:30;;;;;;;0.00;0.00;;;;;;;15.02;90.43;102957.72;10365591;28;20052;-81
2023/05/03 08:04:31;;;;;;;0.00;0.00;;;;;;;15.32;87.26;102954.56;10379687;28;20057;-82
2023/05/03 08:09:33;;;;;;;0.00;0.00;;;;;;;14.68;87.34;102939.88;10390977;28;20508;-83
2023/05/03 08:14:36;;;;;;;0.00;0.00;;;;;;;15.20;84.55;102941.97;10371561;28;20583;-83
2023/05/03 08:19:37;;;;;;;0.10;0.10;;;;;;;14.14;91.84;102943.59;10392028;28;20049;-83
2023/05/03 08:24:39;;;;;;;0.63;0.20;;;;;;;15.99;81.78;102937.16;10371979;28;20045;-83
2023/05/03 08:29:40;;;;;;;0.00;0.00;;;;;;;15.14;81.70;102928.75;10353746;28;20117;-84
2023/05/03 08:34:42;;;;;;;0.00;0.00;;;;;;;16.67;83.03;102920.38;10358336;28;20077;-84
2023/05/03 08:39:43;;;;;;;0.10;0.00;;;;;;;15.99;78.63;102925.84;10388124;28;20045;-81
2023/05/03 08:44:47;;;;;;;0.00;0.00;;;;;;;16.05;79.31;102926.06;10366997;28;20512;-83
2023/05/03 08:49:51;;;;;;;0.00;0.00;;;;;;;15.57;84.11;102923.44;10393470;28;20445;-82
2023/05/03 08:54:53;;;;;;;1.45;0.63;;;;;;;15.97;81.06;102927.53;10374036;28;20081;-83
2023/05/03 09:00:00;;;;;;;0.00;0.00;;;;;;;16.85;81.13;102914.88;10377285;28;20487;-80
2023/05/03 09:05:03;;;;;;;0.10;0.10;;;;;;;17.83;76.33;102916.09;10382707;28;20065;-80
2023/05/03 09:10:23;;;;;;;3.25;0.45;;;;;;;16.98;84.53;102924.00;10388226;28;20412;-79
2023/05/03 09:15:25;;;;;;;0.85;0.20;;;;;;;17.59;76.43;102919.75;10398528;28;20104;-80
2023/05/03 09:20:33;;;;;;;0.25;0.00;;;;;;;15.44;85.53;102928.19;10391609;28;20046;-81
2023/05/03 09:25:46;;;;;;;0.00;0.00;;;;;;;17.71;73.91;102906.19;10373770;28;20132;-81
2023/05/03 09:30:49;;;;;;;0.20;0.17;;;;;;;17.54;76.71;102894.41;10398749;28;20559;-80
2023/05/03 09:35:57;;;;;;;0.00;0.00;;;;;;;16.26;74.27;102894.75;10377467;28;20045;-80
2023/05/03 09:41:00;;;;;;;0.00;0.00;;;;;;;18.18;70.48;102889.22;10394257;28;20059;-80
2023/05/03 09:46:12;;;;;;;0.10;0.10;;;;;;;18.74;66.29;102895.81;10366529;28;20941;-80
2023/05/03 09:51:13;;;;;;;0.10;0.10;;;;;;;14.90;81.78;102902.69;10377159;28;20077;-81
2023/05/03 09:56:16;;;;;;;0.00;0.00;;;;;;;17.71;73.90;102903.59;10368933;28;20136;-81
2023/05/03 10:01:18;;;;;;;0.10;0.10;;;;;;;17.35;73.08;102909.50;10367116;28;20046;-80
2023/05/03 10:06:38;;;;;;;0.28;0.20;;;;;;;17.82;69.06;102903.03;10385434;28;20050;-80
2023/05/03 10:11:45;;;;;;;3.00;0.95;;;;;;;17.30;77.08;102905.88;10385728;28;20034;-80
2023/05/03 10:16:57;;;;;;;0.10;0.10;;;;;;;18.61;67.51;102889.44;10342491;28;20129;-79
2023/05/03 10:22:07;;;;;;;0.25;0.08;;;;;;;18.65;64.82;102875.59;10361878;28;20506;-80
2023/05/03 10:27:10;;;;;;;0.00;0.00;;;;;;;18.90;65.50;102870.94;10366649;28;20054;-80
2023/05/03 10:32:33;;;;;;;0.00;0.00;;;;;;;16.27;75.60;102885.25;10355948;28;20132;-79
2023/05/03 10:37:35;;;;;;;1.17;0.30;;;;;;;17.44;74.02;102873.31;10387410;28;20102;-82
2023/05/03 10:42:37;;;;;;;0.35;0.20;;;;;;;17.69;79.31;102873.97;10378327;28;20038;-81
2023/05/03 10:47:39;;;;;;;0.03;0.03;;;;;;;19.70;69.78;102872.66;10376505;28;20038;-81
2023/05/03 10:52:41;;;;;;;0.30;0.20;;;;;;;17.75;69.30;102884.59;10375687;28;20675;-81
2023/05/03 10:57:46;;;;;;;0.00;0.00;;;;;;;18.06;67.25;102881.97;10355012;28;20073;-81
2023/05/03 11:03:11;;;;;;;0.30;0.20;;;;;;;17.12;81.46;102873.22;10384076;28;20038;-80
2023/05/03 11:08:18;;;;;;;0.20;0.20;;;;;;;19.00;64.77;102858.16;10394040;28;20053;-83
2023/05/03 11:13:19;;;;;;;0.10;0.10;;;;;;;16.70;74.10;102865.84;10383208;28;20046;-81
2023/05/03 11:18:24;;;;;;;0.22;0.13;;;;;;;16.30;73.32;102861.91;10365657;28;20045;-80
2023/05/03 11:23:27;;;;;;;0.20;0.15;;;;;;;17.36;71.00;102848.75;10387268;28;20053;-81
2023/05/03 11:28:29;;;;;;;0.10;0.10;;;;;;;18.46;67.10;102848.16;10392616;28;20049;-82
2023/05/03 11:33:33;;;;;;;0.68;0.17;;;;;;;18.52;67.73;102845.69;10383846;28;20065;-80
2023/05/03 11:38:36;;;;;;;0.05;0.05;;;;;;;18.35;62.99;102835.75;10369395;28;20479;-81
2023/05/03 11:43:45;;;;;;;0.60;0.40;;;;;;;20.61;57.87;102832.34;10348229;28;20046;-83
2023/05/03 11:48:47;;;;;;;;;;;;;;;20.00;57.60;102826.13;10384858;28;20045;-80
2023/05/03 11:53:50;;;;;;;0.00;0.00;;;;;;;20.77;55.30;102819.50;10359498;28;19925;-82
2023/05/03 11:58:55;;;;;;;0.10;0.10;;;;;;;18.46;67.88;102822.06;10369721;28;20415;-82
2023/05/03 12:04:00;;;;;;;0.30;0.20;;;;;;;18.50;71.90;102824.78;10389699;28;20129;-81
2023/05/03 12:09:03;;;;;;;0.10;0.10;;;;;;;19.26;65.54;102813.41;10384813;28;20053;-79
2023/05/03 12:14:05;;;;;;;0.10;0.10;;;;;;;19.49;67.51;102806.03;10381128;28;20115;-80
2023/05/03 12:19:07;;;;;;;0.00;0.00;;;;;;;19.68;63.03;102800.25;10372018;28;20516;-81
2023/05/03 12:24:10;;;;;;;0.50;0.40;;;;;;;18.56;64.03;102792.75;10367124;28;20049;-81
2023/05/03 12:29:11;;;;;;;0.10;0.10;;;;;;;19.55;59.34;102776.47;10373970;28;20053;-83
2023/05/03 12:34:13;;;;;;;0.17;0.17;;;;;;;20.06;64.15;102781.78;10383840;28;20042;-81
2023/05/03 12:39:34;;;;;;;0.10;0.10;;;;;;;18.65;59.80;102779.88;10368734;28;20550;-81
2023/05/03 12:44:41;;;;;;;0.15;0.10;;;;;;;20.81;62.63;102758.44;10382051;28;20046;-85
2023/05/03 12:49:43;;;;;;;0.38;0.10;;;;;;;20.70;57.82;102753.00;10370321;28;20042;-80
2023/05/03 12:54:47;;;;;;;0.45;0.30;;;;;;;18.30;61.66;102753.84;10370811;28;21076;-80
2023/05/03 13:00:08;;;;;;;0.00;0.00;;;;;;;18.17;62.95;102746.59;10380216;28;20049;-81
2023/05/03 13:05:15;;;;;;;0.30;0.30;;;;;;;20.07;58.16;102726.84;10356265;28;20053;-82
2023/05/03 13:10:34;;;;;;;0.10;0.10;;;;;;;19.37;60.27;102721.28;10364378;28;20064;-81
2023/05/03 13:15:43;;;;;;;0.43;0.30;;;;;;;17.67;64.59;102724.50;10483587;28;20444;-81
2023/05/03 13:20:44;;;;;;;2.13;0.20;;;;;;;18.97;71.14;102713.56;10444440;28;20140;-81
2023/05/03 13:25:46;;;;;;;0.68;0.10;;;;;;;19.23;61.39;102698.38;10429628;28;20128;-81
2023/05/03 13:30:47;;;;;;;0.30;0.20;;;;;;;18.87;60.58;102699.41;10412835;28;20141;-81
2023/05/03 13:35:49;;;;;;;0.08;0.05;;;;;;;20.38;61.00;102684.50;10417897;28;20058;-80
2023/05/03 13:40:51;;;;;;;0.47;0.10;;;;;;;20.01;61.08;102668.31;10418485;28;20075;-80
2023/05/03 13:45:59;;;;;;;0.17;0.15;;;;;;;20.27;65.14;102664.34;10415455;28;20048;-81
2023/05/03 13:51:12;;;;;;;0.73;0.10;;;;;;;19.67;58.55;102668.63;10418752;28;20049;-81
2023/05/03 13:56:13;;;;;;;0.10;0.10;;;;;;;19.02;57.31;102657.91;10401426;28;20061;-81
2023/05/03 14:01:16;;;;;;;0.10;0.10;;;;;;;19.65;58.49;102652.06;10418214;28;20045;-81
2023/05/03 14:06:18;;;;;;;0.00;0.00;;;;;;;18.57;58.94;102652.66;10415793;28;20046;-80
2023/05/03 14:11:27;;;;;;;0.40;0.10;;;;;;;18.63;61.32;102638.00;10414313;28;20049;-81
2023/05/03 14:16:28;;;;;;;0.20;0.20;;;;;;;18.48;60.65;102632.47;10414295;28;20115;-79
2023/05/03 14:21:33;;;;;;;0.10;0.10;;;;;;;18.79;58.38;102627.88;10411828;28;20033;-80
2023/05/03 14:26:35;;;;;;;0.13;0.13;;;;;;;18.66;58.55;102625.00;10397722;28;20137;-81
2023/05/03 14:31:37;;;;;;;0.22;0.15;;;;;;;18.21;58.93;102623.19;10389241;28;20489;-78
2023/05/03 14:36:42;;;;;;;0.32;0.28;;;;;;;18.89;61.29;102613.25;10395536;28;20393;-80
2023/05/03 14:41:44;;;;;;;0.55;0.22;;;;;;;20.33;58.51;102597.22;10397550;28;20578;-83
2023/05/03 14:46:46;;;;;;;0.00;0.00;;;;;;;19.77;57.66;102601.69;10383864;28;20361;-82
2023/05/03 14:51:47;;;;;;;0.43;0.43;;;;;;;18.75;57.13;102605.16;10398545;28;20046;-81
2023/05/03 14:56:49;;;;;;;0.55;0.38;;;;;;;18.01;57.19;102599.31;10401763;28;20045;-80
2023/05/03 15:01:51;;;;;;;0.43;0.13;;;;;;;19.21;59.78;102585.13;10400014;28;20049;-83
2023/05/03 15:06:52;;;;;;;0.00;0.00;;;;;;;18.63;60.82;102585.81;10402028;28;20068;-82
2023/05/03 15:11:54;;;;;;;0.00;0.00;;;;;;;18.20;60.36;102587.56;10387893;28;20477;-82
2023/05/03 15:16:55;;;;;;;0.00;0.00;;;;;;;18.67;58.84;102574.56;10405806;28;20423;-82
2023/05/03 15:21:57;;;;;;;0.32;0.13;;;;;;;19.52;62.30;102569.03;10417260;28;20069;-82
2023/05/03 15:27:01;;;;;;;0.30;0.22;;;;;;;19.72;61.12;102567.63;10390024;28;20045;-83
2023/05/03 15:32:03;;;;;;;0.32;0.28;;;;;;;19.27;57.93;102564.31;10382491;28;20053;-82
2023/05/03 15:37:04;;;;;;;0.25;0.10;;;;;;;19.37;59.30;102559.25;10396127;28;20080;-79
2023/05/03 15:42:06;;;;;;;0.40;0.10;;;;;;;18.42;57.56;102559.28;10413006;28;20038;-80
2023/05/03 15:47:08;;;;;;;0.40;0.20;;;;;;;18.20;60.07;102558.84;10417622;28;20053;-82
2023/05/03 15:52:11;;;;;;;0.17;0.10;;;;;;;19.84;60.20;102555.56;10403056;28;20041;-81
2023/05/03 15:57:12;;;;;;;0.50;0.20;;;;;;;19.23;58.33;102549.47;10397199;28;20526;-82
2023/05/03 16:02:14;;;;;;;0.00;0.00;;;;;;;19.11;57.98;102551.84;10394868;28;20132;-82
2023/05/03 16:07:16;;;;;;;0.10;0.10;;;;;;;18.96;56.45;102553.34;10399738;28;20038;-83
2023/05/03 16:12:17;;;;;;;0.20;0.10;;;;;;;18.08;61.60;102544.69;10391618;28;20448;-85
2023/05/03 16:17:19;;;;;;;0.28;0.22;;;;;;;17.98;58.66;102553.19;10396098;28;20502;-84
2023/05/03 16:22:20;;;;;;;0.15;0.15;;;;;;;18.95;60.20;102546.34;10378085;28;20184;-84
2023/05/03 16:27:22;;;;;;;0.05;0.05;;;;;;;18.89;59.23;102535.78;10392073;28;20049;-84
2023/05/03 16:32:24;;;;;;;0.40;0.15;;;;;;;18.79;57.21;102539.97;10400494;28;20044;-82
2023/05/03 16:37:26;;;;;;;0.20;0.20;;;;;;;19.08;57.62;102536.13;10390040;28;20049;-83
2023/05/03 16:42:27;;;;;;;0.10;0.10;;;;;;;19.66;60.34;102533.50;10386310;28;20096;-82
2023/05/03 16:47:29;;;;;;;1.02;0.80;;;;;;;19.09;57.95;102527.44;10399237;28;20041;-83
2023/05/03 16:52:36;;;;;;;0.75;0.40;;;;;;;19.02;61.24;102527.31;10381182;28;20042;-85
2023/05/03 16:57:38;;;;;;;4.15;0.82;;;;;;;18.21;61.86;102524.06;10392143;28;20169;-84
2023/05/03 17:02:40;;;;;;;5.07;1.38;;;;;;;18.34;63.14;102520.88;10394553;28;20116;-84
2023/05/03 17:07:42;;;;;;;3.10;0.98;;;;;;;18.20;63.51;102522.34;10394119;28;20119;-84
2023/05/03 17:12:46;;;;;;;1.55;0.68;;;;;;;17.91;65.34;102526.06;10394674;28;20042;-85
2023/05/03 17:17:48;;;;;;;2.75;0.98;;;;;;;17.93;64.82;102520.88;10377307;28;20042;-83
2023/05/03 17:22:50;;;;;;;1.55;0.60;;;;;;;17.30;65.37;102520.34;10400070;28;20116;-83
2023/05/03 17:27:52;;;;;;;1.65;0.80;;;;;;;17.39;65.60;102519.69;10403028;28;20061;-83
2023/05/03 17:32:53;;;;;;;4.25;1.00;;;;;;;17.36;66.58;102515.28;10383177;28;20096;-81
2023/05/03 17:37:55;;;;;;;16.88;1.20;;;;;;;17.52;64.68;102510.44;10399298;28;20104;-84
2023/05/03 17:42:57;;;;;;;1.35;0.80;;;;;;;17.55;67.20;102513.09;10390643;28;20049;-83
2023/05/03 17:47:58;;;;;;;4.07;1.00;;;;;;;17.28;67.16;102501.19;10389122;28;20045;-81
2023/05/03 17:53:01;;;;;;;1.38;1.17;;;;;;;17.27;66.70;102502.03;10398265;28;20500;-84
2023/05/03 17:58:04;;;;;;;0.65;0.65;;;;;;;17.12;68.92;102511.25;10396249;28;20053;-82
2023/05/03 18:03:06;;;;;;;2.08;0.68;;;;;;;16.83;69.78;102507.88;10401742;28;20135;-80
2023/05/03 18:08:08;;;;;;;0.52;0.22;;;;;;;16.66;69.82;102502.22;10402999;28;20060;-80
2023/05/03 18:13:11;;;;;;;1.67;0.43;;;;;;;16.64;74.54;102498.72;10397014;28;20120;-82
2023/05/03 18:18:13;;;;;;;1.15;0.60;;;;;;;16.47;73.76;102493.94;10392922;28;20443;-84
2023/05/03 18:23:14;;;;;;;1.00;0.65;;;;;;;16.22;76.56;102499.31;10398810;28;20045;-83
2023/05/03 18:28:17;;;;;;;1.20;0.60;;;;;;;15.84;77.20;102493.03;10396583;28;20069;-84
2023/05/03 18:33:19;;;;;;;4.72;1.90;;;;;;;15.59;78.36;102500.94;10406062;28;20082;-83
2023/05/03 18:38:20;;;;;;;0.45;0.30;;;;;;;15.20;81.72;102490.22;10386224;28;20073;-80
2023/05/03 18:43:22;;;;;;;0.65;0.65;;;;;;;15.06;82.17;102496.66;10387007;28;20046;-82
2023/05/03 18:48:23;;;;;;;1.23;1.13;;;;;;;15.07;81.60;102503.63;10392623;28;20550;-84
2023/05/03 18:53:28;;;;;;;1.00;0.55;;;;;;;15.00;83.83;102502.53;10393925;28;20045;-83
2023/05/03 18:58:30;;;;;;;16.75;0.98;;;;;;;15.15;84.09;102504.72;10394655;28;20053;-83
2023/05/03 19:03:32;;;;;;;0.17;0.17;;;;;;;14.80;87.12;102503.59;10392165;28;20077;-81
2023/05/03 19:08:34;;;;;;;0.10;0.10;;;;;;;14.77;87.24;102499.19;10392462;28;20442;-81
2023/05/03 19:13:36;;;;;;;0.20;0.20;;;;;;;14.45;87.30;102506.66;10400329;28;20483;-83
2023/05/03 19:18:40;;;;;;;3.40;1.13;;;;;;;14.28;90.91;102499.16;10390505;28;20041;-84
2023/05/03 19:23:43;;;;;;;0.00;0.00;;;;;;;14.22;90.81;102501.53;10399131;28;20065;-83
2023/05/03 19:28:44;;;;;;;0.68;0.68;;;;;;;13.96;94.19;102506.63;10402106;28;20069;-82
2023/05/03 19:33:46;;;;;;;0.82;0.63;;;;;;;13.72;96.64;102522.13;10391631;28;20104;-83
2023/05/03 19:38:47;;;;;;;0.47;0.30;;;;;;;13.69;97.07;102528.91;10403407;28;20095;-81
2023/05/03 19:43:53;;;;;;;0.38;0.30;;;;;;;13.74;95.15;102519.59;10399308;28;20096;-81
2023/05/03 19:48:55;;;;;;;2.38;1.02;;;;;;;13.72;95.53;102536.81;10395812;28;20504;-82
2023/05/03 19:53:56;;;;;;;0.80;0.60;;;;;;;13.64;96.22;102536.47;10400032;28;20037;-84
2023/05/03 19:58:58;;;;;;;0.30;0.30;;;;;;;13.52;96.99;102523.06;10399858;28;20076;-83
2023/05/03 20:03:59;;;;;;;0.35;0.35;;;;;;;13.43;100.00;102527.03;10390365;28;20128;-83
2023/05/03 20:09:01;;;;;;;0.68;0.45;;;;;;;13.08;100.00;102535.91;10395055;28;20428;-83
2023/05/03 20:14:03;;;;;;;0.90;0.75;;;;;;;12.72;100.00;102533.53;10391845;28;20528;-84
2023/05/03 20:19:04;;;;;;;3.22;0.88;;;;;;;12.45;100.00;102541.88;10389338;28;20132;-81
2023/05/03 20:24:09;;;;;;;0.45;0.40;;;;;;;12.89;100.00;102540.31;10403917;28;20053;-80
2023/05/03 20:29:11;;;;;;;0.90;0.68;;;;;;;12.76;100.00;102522.53;10386155;28;20045;-82
2023/05/03 20:34:12;;;;;;;0.75;0.57;;;;;;;12.79;100.00;102522.63;10373940;28;20132;-82
2023/05/03 20:39:14;;;;;;;1.35;0.80;;;;;;;12.68;100.00;102514.41;10391515;28;20478;-81
2023/05/03 20:44:16;;;;;;;0.82;0.73;;;;;;;12.65;100.00;102515.19;10399273;28;20068;-81
2023/05/03 20:49:17;;;;;;;1.08;0.80;;;;;;;12.80;100.00;102524.41;10392339;28;20124;-83
2023/05/03 20:54:19;;;;;;;0.30;0.30;;;;;;;12.76;100.00;102519.94;10399881;28;20068;-84
2023/05/03 20:59:20;;;;;;;1.00;0.93;;;;;;;12.75;100.00;102505.22;10391105;28;20117;-83
2023/05/03 21:04:23;;;;;;;1.10;0.85;;;;;;;12.68;100.00;102507.56;10396567;28;20105;-83
2023/05/03 21:09:25;;;;;;;2.08;0.60;;;;;;;12.46;100.00;102502.28;10379266;28;20042;-82
2023/05/03 21:14:27;;;;;;;0.40;0.40;;;;;;;12.37;100.00;102503.63;10377917;28;20125;-83
2023/05/03 21:19:29;;;;;;;2.28;1.05;;;;;;;12.43;100.00;102499.53;10373011;28;20061;-82
2023/05/03 21:24:30;;;;;;;1.20;1.05;;;;;;;12.34;100.00;102498.31;10384380;28;20448;-83
2023/05/03 21:29:32;;;;;;;0.60;0.45;;;;;;;12.35;100.00;102502.69;10378843;28;20690;-83
2023/05/03 21:34:33;;;;;;;0.20;0.20;;;;;;;12.35;100.00;102504.38;10380178;28;20077;-82
2023/05/03 21:39:35;;;;;;;1.27;0.73;;;;;;;12.14;100.00;102504.31;10385005;28;20041;-81
2023/05/03 21:44:37;;;;;;;1.70;1.25;;;;;;;12.12;100.00;102493.91;10398647;28;20117;-81
2023/05/03 21:49:39;;;;;;;0.20;0.20;;;;;;;12.05;100.00;102485.00;10398783;28;20046;-82
2023/05/03 21:54:41;;;;;;;0.47;0.38;;;;;;;11.80;100.00;102489.81;10399175;28;20140;-82
2023/05/03 21:59:43;;;;;;;2.75;1.48;;;;;;;11.79;100.00;102485.47;10401522;28;20512;-83
2023/05/03 22:04:46;;;;;;;1.80;0.85;;;;;;;11.88;100.00;102480.72;10406280;28;20124;-82
2023/05/03 22:09:47;;;;;;;0.80;0.50;;;;;;;11.81;100.00;102478.66;10387228;28;20077;-83
2023/05/03 22:14:49;;;;;;;2.20;1.17;;;;;;;11.53;100.00;102480.88;10404186;28;20111;-82
2023/05/03 22:19:51;;;;;;;2.25;0.47;;;;;;;11.49;100.00;102480.63;10397412;28;20072;-82
2023/05/03 22:24:54;;;;;;;0.82;0.77;;;;;;;11.57;100.00;102476.72;10402475;28;20045;-82
2023/05/03 22:29:55;;;;;;;0.75;0.63;;;;;;;11.38;100.00;102462.94;10390118;28;20050;-83
2023/05/03 22:34:57;;;;;;;1.17;0.52;;;;;;;11.20;100.00;102462.94;10407880;28;20076;-83
2023/05/03 22:39:58;;;;;;;4.03;1.45;;;;;;;11.10;100.00;102461.63;10405610;28;20052;-82
2023/05/03 22:45:00;;;;;;;0.95;0.55;;;;;;;10.88;100.00;102463.94;10391225;28;20042;-82
2023/05/03 22:50:02;;;;;;;2.30;0.68;;;;;;;10.97;100.00;102448.94;10387172;28;20045;-81
2023/05/03 22:55:04;;;;;;;2.85;0.45;;;;;;;10.90;100.00;102452.03;10402894;28;20042;-82
2023/05/03 23:00:09;;;;;;;6.53;2.22;;;;;;;10.46;100.00;102455.00;10398478;28;20049;-83
2023/05/03 23:05:10;;;;;;;0.63;0.47;;;;;;;10.51;100.00;102454.34;10386744;28;20427;-82
2023/05/03 23:10:12;;;;;;;1.20;0.50;;;;;;;10.36;100.00;102463.03;10403880;28;20057;-80
2023/05/03 23:15:14;;;;;;;2.63;0.35;;;;;;;10.53;100.00;102447.59;10388891;28;20412;-81